createdAt,value
2019-02-19T00:01:35.165Z,78.50
2019-02-19T00:04:06.053Z,78.42
2019-02-19T00:14:15.353Z,78.84
2019-02-19T00:16:45.844Z,79.01
2019-02-19T00:19:16.314Z,78.81
2019-02-19T00:21:46.855Z,79.33
2019-02-19T00:24:17.373Z,79.01
2019-02-19T00:26:47.863Z,78.98
2019-02-19T00:29:18.468Z,79.20
2019-02-19T00:31:48.924Z,78.92
2019-02-19T00:34:19.474Z,79.29
2019-02-19T00:36:49.956Z,79.28
2019-02-19T00:39:20.423Z,79.63
2019-02-19T00:41:51.033Z,79.74
2019-02-19T00:44:21.573Z,79.65
2019-02-19T00:46:52.073Z,79.49
2019-02-19T00:49:22.557Z,79.71
2019-02-19T00:51:53.053Z,79.65
2019-02-19T00:54:23.505Z,79.51
2019-02-19T00:56:54.023Z,79.53
2019-02-19T00:59:24.533Z,79.56
2019-02-19T01:01:55.073Z,79.19
2019-02-19T01:04:25.693Z,79.07
2019-02-19T01:06:56.232Z,79.12
2019-02-19T01:09:26.873Z,79.28
2019-02-19T01:11:57.796Z,79.29
2019-02-19T01:14:28.284Z,78.97
2019-02-19T01:16:58.778Z,79.35
2019-02-19T01:19:29.243Z,79.19
2019-02-19T01:21:59.739Z,79.22
2019-02-19T01:24:30.214Z,78.63
2019-02-19T01:27:00.794Z,78.94
2019-02-19T01:29:31.314Z,78.89
2019-02-19T01:32:01.834Z,78.72
2019-02-19T01:34:32.393Z,79.05
2019-02-19T01:37:02.956Z,78.71
2019-02-19T01:39:33.496Z,78.61
2019-02-19T01:42:04.084Z,78.58
2019-02-19T01:44:34.614Z,78.89
2019-02-19T01:47:05.103Z,79.10
2019-02-19T01:49:35.609Z,79.02
2019-02-19T01:52:06.169Z,79.26
2019-02-19T01:54:36.687Z,79.14
2019-02-19T01:57:07.225Z,79.15
2019-02-19T01:59:37.673Z,79.08
2019-02-19T02:02:08.154Z,79.00
2019-02-19T02:04:38.673Z,78.84
2019-02-19T02:07:09.165Z,78.91
2019-02-19T02:09:39.696Z,79.23
2019-02-19T02:12:10.173Z,79.09
2019-02-19T02:14:40.733Z,79.05
2019-02-19T02:17:11.274Z,79.50
2019-02-19T02:19:41.774Z,79.21
2019-02-19T02:22:12.278Z,79.31
2019-02-19T02:24:42.744Z,79.39
2019-02-19T02:27:13.258Z,79.69
2019-02-19T02:29:43.744Z,79.70
2019-02-19T02:32:14.257Z,79.32
2019-02-19T02:34:44.731Z,79.02
2019-02-19T02:37:15.288Z,79.11
2019-02-19T02:39:45.819Z,79.59
2019-02-19T02:42:16.348Z,79.05
2019-02-19T02:44:46.830Z,79.25
2019-02-19T02:47:17.358Z,79.00
2019-02-19T02:49:47.838Z,78.89
2019-02-19T02:52:18.418Z,78.87
2019-02-19T02:54:48.911Z,79.23
2019-02-19T02:57:19.447Z,79.01
2019-02-19T02:59:49.877Z,78.82
2019-02-19T03:02:20.407Z,79.07
2019-02-19T03:04:50.901Z,78.86
2019-02-19T03:07:42.387Z,79.33
2019-02-19T03:10:12.908Z,79.40
2019-02-19T03:12:43.437Z,79.83
2019-02-19T03:15:14.788Z,79.90
2019-02-19T03:17:46.308Z,79.51
2019-02-19T03:20:16.794Z,79.73
2019-02-19T03:22:47.319Z,79.68
2019-02-19T03:25:17.800Z,79.78
2019-02-19T03:27:48.347Z,79.71
2019-02-19T03:30:18.896Z,79.86
2019-02-19T03:32:49.479Z,79.92
2019-02-19T03:35:19.938Z,79.94
2019-02-19T03:37:50.497Z,79.89
2019-02-19T03:40:21.985Z,79.76
2019-02-19T03:42:52.548Z,80.04
2019-02-19T03:45:23.170Z,79.96
2019-02-19T03:47:53.737Z,80.05
2019-02-19T03:50:24.237Z,79.91
2019-02-19T03:52:54.829Z,79.81
2019-02-19T03:55:25.475Z,79.79
2019-02-19T03:57:56.000Z,79.88
2019-02-19T04:00:26.469Z,80.10
2019-02-19T04:02:56.954Z,80.18
2019-02-19T04:05:27.477Z,80.45
2019-02-19T04:07:57.921Z,80.35
2019-02-19T04:10:28.428Z,80.15
2019-02-19T04:12:58.917Z,80.27
2019-02-19T04:15:29.439Z,80.51
2019-02-19T04:17:59.918Z,80.44
2019-02-19T04:20:30.389Z,80.43
2019-02-19T04:23:00.887Z,80.28
2019-02-19T04:25:31.438Z,80.40
2019-02-19T04:28:01.917Z,80.29
2019-02-19T04:30:32.438Z,80.56
2019-02-19T04:33:02.929Z,80.54
2019-02-19T04:35:33.418Z,81.12
2019-02-19T04:38:03.918Z,80.85
2019-02-19T04:40:34.418Z,80.81
2019-02-19T04:43:04.914Z,81.01
2019-02-19T04:45:35.428Z,81.24
2019-02-19T04:48:05.892Z,81.54
2019-02-19T04:50:36.441Z,81.42
2019-02-19T04:53:06.978Z,81.21
2019-02-19T04:55:37.540Z,80.94
2019-02-19T04:58:08.037Z,80.91
2019-02-19T05:00:38.667Z,80.66
2019-02-19T05:03:09.158Z,80.46
2019-02-19T05:05:39.670Z,80.33
2019-02-19T05:08:10.137Z,80.39
2019-02-19T05:10:40.637Z,80.29
2019-02-19T05:13:11.104Z,80.47
2019-02-19T05:15:41.608Z,80.45
2019-02-19T05:18:12.067Z,80.62
2019-02-19T05:20:42.611Z,80.47
2019-02-19T05:23:13.168Z,80.30
2019-02-19T05:25:43.720Z,80.25
2019-02-19T05:28:14.221Z,80.42
2019-02-19T05:30:44.909Z,80.47
2019-02-19T05:33:15.419Z,80.98
2019-02-19T05:35:45.989Z,80.72
2019-02-19T05:38:17.567Z,80.53
2019-02-19T05:40:48.370Z,80.72
2019-02-19T05:43:19.037Z,80.44
2019-02-19T05:45:49.559Z,80.39
2019-02-19T05:48:20.059Z,80.44
2019-02-19T05:50:50.622Z,80.26
2019-02-19T05:53:21.197Z,80.19
2019-02-19T05:55:51.735Z,80.12
2019-02-19T05:58:45.556Z,80.38
2019-02-19T06:01:19.666Z,80.39
2019-02-19T06:03:52.609Z,80.96
2019-02-19T06:06:24.778Z,80.79
2019-02-19T06:08:55.387Z,80.81
2019-02-19T06:11:25.928Z,80.49
2019-02-19T06:13:56.558Z,80.17
2019-02-19T06:16:27.097Z,79.85
2019-02-19T06:18:57.578Z,79.57
2019-02-19T06:21:28.108Z,79.52
2019-02-19T06:24:02.588Z,79.42
2019-02-19T06:26:59.683Z,79.91
2019-02-19T06:29:33.639Z,79.86
2019-02-19T06:35:25.457Z,79.26
2019-02-19T06:37:59.600Z,79.64
2019-02-19T06:40:30.567Z,79.81
2019-02-19T06:43:03.568Z,80.07
2019-02-19T06:45:34.098Z,79.86
2019-02-19T06:48:04.598Z,80.14
2019-02-19T06:50:35.242Z,80.26
2019-02-19T06:53:05.737Z,80.44
2019-02-19T06:55:36.317Z,80.58
2019-02-19T06:58:06.838Z,80.34
2019-02-19T07:00:37.458Z,80.24
2019-02-19T07:03:32.577Z,79.91
2019-02-19T07:06:03.659Z,79.62
2019-02-19T07:08:34.237Z,79.82
2019-02-19T07:11:04.911Z,79.47
2019-02-19T07:13:35.467Z,78.63
2019-02-19T07:16:06.218Z,77.40
2019-02-19T07:18:37.129Z,77.21
2019-02-19T07:21:10.031Z,75.99
2019-02-19T07:23:40.575Z,69.65
2019-02-19T07:26:11.107Z,67.36
2019-02-19T07:28:41.648Z,64.88
2019-02-19T07:31:12.367Z,62.32
2019-02-19T07:33:42.897Z,61.24
2019-02-19T07:36:13.538Z,60.35
2019-02-19T07:38:45.037Z,60.67
2019-02-19T07:41:16.537Z,62.33
2019-02-19T07:43:47.038Z,65.38
2019-02-19T07:46:17.558Z,67.91
2019-02-19T07:48:49.392Z,69.34
2019-02-19T07:51:20.118Z,70.36
2019-02-19T07:54:26.238Z,71.22
2019-02-19T07:56:58.488Z,71.50
2019-02-19T07:59:29.673Z,72.24
2019-02-19T08:02:00.209Z,75.71
2019-02-19T08:04:30.758Z,73.00
2019-02-19T08:07:01.338Z,72.72
2019-02-19T08:09:31.840Z,71.50
2019-02-19T08:12:02.362Z,70.59
2019-02-19T08:14:32.918Z,69.82
2019-02-19T08:17:03.509Z,69.94
2019-02-19T08:19:34.036Z,68.56
2019-02-19T08:22:04.696Z,66.05
2019-02-19T08:24:35.318Z,65.37
2019-02-19T08:27:05.848Z,63.09
2019-02-19T08:29:36.378Z,61.76
2019-02-19T08:32:09.835Z,61.64
2019-02-19T08:34:40.308Z,59.37
2019-02-19T08:37:10.846Z,57.32
2019-02-19T08:39:41.371Z,54.97
2019-02-19T08:42:11.908Z,56.16
2019-02-19T08:44:42.358Z,56.10
2019-02-19T08:47:13.035Z,55.01
2019-02-19T08:49:43.600Z,54.38
2019-02-19T08:52:14.119Z,53.69
2019-02-19T08:54:44.656Z,53.29
2019-02-19T08:57:15.308Z,51.40
2019-02-19T08:59:45.779Z,50.68
2019-02-19T09:02:16.298Z,49.60
2019-02-19T09:04:46.798Z,49.96
2019-02-19T09:07:17.378Z,49.64
2019-02-19T09:09:47.995Z,48.68
2019-02-19T09:12:18.545Z,48.73
2019-02-19T09:14:49.486Z,48.17
2019-02-19T09:17:19.999Z,48.85
2019-02-19T09:19:50.488Z,46.30
2019-02-19T09:22:21.018Z,47.43
2019-02-19T09:24:51.579Z,46.85
2019-02-19T09:27:22.096Z,45.45
2019-02-19T09:29:52.838Z,46.20
2019-02-19T09:32:23.399Z,42.04
2019-02-19T09:34:53.988Z,44.94
2019-02-19T09:37:24.527Z,42.90
2019-02-19T09:39:55.057Z,43.41
2019-02-19T09:42:25.785Z,40.86
2019-02-19T09:44:56.508Z,42.40
2019-02-19T09:47:27.028Z,39.48
2019-02-19T09:49:58.241Z,42.72
2019-02-19T09:52:28.888Z,42.49
2019-02-19T09:54:59.378Z,39.55
2019-02-19T09:57:32.649Z,39.63
2019-02-19T10:00:03.373Z,41.02
2019-02-19T10:02:34.088Z,39.81
2019-02-19T10:05:04.700Z,39.69
2019-02-19T10:07:35.229Z,39.29
2019-02-19T10:10:06.469Z,38.94
2019-02-19T10:12:37.018Z,38.50
2019-02-19T10:15:08.458Z,38.53
2019-02-19T10:17:39.009Z,36.29
2019-02-19T10:20:09.848Z,38.93
2019-02-19T10:22:40.397Z,39.10
2019-02-19T10:25:11.506Z,39.09
2019-02-19T10:27:42.050Z,39.16
2019-02-19T10:30:14.837Z,38.10
2019-02-19T10:32:45.414Z,39.38
2019-02-19T10:35:15.887Z,38.60
2019-02-19T10:37:46.480Z,38.02
2019-02-19T10:40:17.123Z,34.70
2019-02-19T10:42:47.691Z,37.17
2019-02-19T10:45:18.906Z,36.58
2019-02-19T10:47:49.467Z,33.43
2019-02-19T10:50:19.963Z,37.32
2019-02-19T10:52:51.794Z,33.88
2019-02-19T10:55:27.737Z,35.94
2019-02-19T10:57:58.279Z,36.80
2019-02-19T11:00:28.827Z,32.88
2019-02-19T11:02:59.458Z,34.11
2019-02-19T11:05:30.008Z,35.98
2019-02-19T11:08:00.518Z,36.24
2019-02-19T11:10:32.978Z,32.66
2019-02-19T11:13:03.578Z,32.28
2019-02-19T11:15:34.077Z,33.31
2019-02-19T11:18:04.798Z,34.77
2019-02-19T11:20:35.248Z,32.72
2019-02-19T11:23:08.421Z,33.90
2019-02-19T11:25:39.301Z,34.30
2019-02-19T11:28:11.520Z,33.59
2019-02-19T11:30:50.058Z,32.86
2019-02-19T11:35:45.667Z,29.36
2019-02-19T11:38:19.486Z,33.31
2019-02-19T11:40:50.128Z,30.86
2019-02-19T11:43:20.706Z,31.47
2019-02-19T11:45:55.544Z,32.32
2019-02-19T11:48:26.341Z,32.89
2019-02-19T11:50:57.268Z,31.78
2019-02-19T11:53:29.574Z,32.44
2019-02-19T11:56:03.518Z,30.52
2019-02-19T11:58:49.488Z,32.03
2019-02-19T12:01:24.059Z,31.11
2019-02-19T12:03:56.077Z,30.14
2019-02-19T12:06:26.631Z,31.92
2019-02-19T12:08:57.146Z,29.82
2019-02-19T12:11:27.790Z,28.69
2019-02-19T12:14:00.001Z,29.61
2019-02-19T12:16:33.657Z,29.08
2019-02-19T12:19:04.571Z,31.08
2019-02-19T12:21:36.516Z,30.56
2019-02-19T12:24:07.335Z,30.05
2019-02-19T12:26:45.191Z,29.52
2019-02-19T12:29:25.668Z,30.30
2019-02-19T12:32:04.986Z,29.83
2019-02-19T12:34:38.203Z,27.79
2019-02-19T12:37:27.026Z,26.03
2019-02-19T12:40:04.747Z,28.43
2019-02-19T12:42:49.479Z,27.35
2019-02-19T12:45:38.212Z,29.08
2019-02-19T12:48:59.016Z,27.72
2019-02-19T12:51:42.588Z,29.29
2019-02-19T12:54:24.506Z,26.15
2019-02-19T12:57:01.308Z,29.04
2019-02-19T12:59:32.007Z,29.75
2019-02-19T13:02:08.754Z,29.68
2019-02-19T13:04:59.588Z,26.30
2019-02-19T13:07:38.035Z,28.01
2019-02-19T13:10:12.756Z,26.77
2019-02-19T13:12:45.147Z,28.78
2019-02-19T13:15:15.977Z,28.36
2019-02-19T13:17:48.088Z,28.58
2019-02-19T13:20:21.699Z,26.69
2019-02-19T13:22:57.339Z,29.21
2019-02-19T13:25:31.508Z,28.09
2019-02-19T13:28:16.086Z,28.01
2019-02-19T13:30:47.787Z,29.62
2019-02-19T13:33:21.719Z,28.53
2019-02-19T13:35:53.888Z,28.09
2019-02-19T13:38:25.497Z,28.42
2019-02-19T13:40:56.018Z,28.07
2019-02-19T13:43:26.688Z,28.40
2019-02-19T13:45:57.258Z,28.44
2019-02-19T13:48:27.895Z,29.06
2019-02-19T13:50:58.532Z,27.16
2019-02-19T13:53:46.557Z,28.27
2019-02-19T13:56:17.164Z,27.04
2019-02-19T13:58:47.750Z,28.13
2019-02-19T14:01:18.484Z,26.73
2019-02-19T14:03:49.238Z,27.57
2019-02-19T14:06:20.069Z,27.13
2019-02-19T14:08:52.891Z,26.59
2019-02-19T14:25:44.798Z,27.88
2019-02-19T14:28:35.426Z,27.46
2019-02-19T14:31:23.507Z,27.08
2019-02-19T14:34:12.908Z,27.72
2019-02-19T14:37:09.761Z,29.16
2019-02-19T14:46:16.836Z,30.22
2019-02-19T14:52:22.836Z,30.31
2019-02-19T14:55:04.932Z,30.49
2019-02-19T14:58:00.395Z,32.67
2019-02-19T15:00:49.801Z,35.10
2019-02-19T15:03:40.877Z,36.88
2019-02-19T15:06:49.071Z,37.84
2019-02-19T15:09:48.329Z,38.27
2019-02-19T15:12:49.807Z,39.21
2019-02-19T15:15:39.218Z,39.68
2019-02-19T15:18:28.459Z,39.80
2019-02-19T15:21:28.146Z,40.31
2019-02-19T15:24:19.821Z,40.71
2019-02-19T15:27:10.818Z,40.65
2019-02-19T15:30:33.518Z,41.29
2019-02-19T15:33:35.897Z,41.57
2019-02-19T15:36:40.358Z,42.06
2019-02-19T15:43:05.534Z,42.74
2019-02-19T15:46:24.846Z,43.24
2019-02-19T15:49:10.247Z,43.64
2019-02-19T15:52:09.118Z,44.61
2019-02-19T15:54:49.948Z,45.16
2019-02-19T15:57:40.141Z,45.49
2019-02-19T16:00:29.300Z,45.56
2019-02-19T16:03:21.409Z,45.82
2019-02-19T16:06:14.000Z,45.98
2019-02-19T16:15:04.077Z,46.65
2019-02-19T16:17:50.836Z,47.12
2019-02-19T16:20:43.498Z,47.51
2019-02-19T16:23:44.144Z,47.93
2019-02-19T16:26:39.310Z,48.66
2019-02-19T16:29:37.777Z,48.47
2019-02-19T16:32:30.109Z,49.07
2019-02-19T16:35:18.352Z,49.29
2019-02-19T16:38:11.613Z,49.46
2019-02-19T16:40:57.028Z,49.46
2019-02-19T16:43:45.257Z,49.53
2019-02-19T16:46:34.685Z,49.53
2019-02-19T16:49:16.696Z,49.89
2019-02-19T16:51:57.298Z,50.14
2019-02-19T16:54:33.458Z,50.29
2019-02-19T16:57:12.280Z,49.71
2019-02-19T17:00:10.738Z,49.32
2019-02-19T17:03:08.931Z,48.70
2019-02-19T17:05:47.398Z,48.44
2019-02-19T17:08:38.425Z,48.47
2019-02-19T17:11:27.966Z,48.69
2019-02-19T17:14:35.028Z,49.10
2019-02-19T17:17:25.618Z,49.33
2019-02-19T17:20:26.471Z,49.67
2019-02-19T17:26:55.490Z,49.93
2019-02-19T17:29:40.597Z,49.96
2019-02-19T17:32:48.319Z,50.32
2019-02-19T17:35:42.128Z,50.35
2019-02-19T17:38:34.477Z,50.40
2019-02-19T17:41:11.399Z,50.77
2019-02-19T17:43:55.900Z,50.60
2019-02-19T17:46:40.066Z,50.58
2019-02-19T17:49:29.448Z,50.93
2019-02-19T17:52:18.808Z,50.91
2019-02-19T17:55:27.638Z,51.39
2019-02-19T17:58:21.070Z,51.11
2019-02-19T18:01:09.088Z,51.21
2019-02-19T18:04:25.488Z,51.44
2019-02-19T18:07:13.897Z,51.40
2019-02-19T18:10:09.079Z,51.69
2019-02-19T18:13:04.616Z,52.10
2019-02-19T18:16:02.663Z,52.12
2019-02-19T18:18:50.138Z,52.48
2019-02-19T18:21:22.398Z,52.85
2019-02-19T18:24:29.259Z,53.13
2019-02-19T18:27:14.498Z,53.15
2019-02-19T18:29:46.468Z,53.61
2019-02-19T18:32:19.191Z,54.28
2019-02-19T18:34:55.148Z,54.17
2019-02-19T18:37:26.218Z,55.02
2019-02-19T18:39:59.362Z,54.55
2019-02-19T18:42:34.619Z,54.84
2019-02-19T18:45:08.318Z,55.21
2019-02-19T18:47:38.938Z,55.34
2019-02-19T18:50:09.787Z,55.49
2019-02-19T18:52:40.449Z,55.71
2019-02-19T18:55:29.157Z,55.70
2019-02-19T18:58:32.006Z,55.91
2019-02-19T19:01:12.026Z,55.75
2019-02-19T19:03:45.317Z,55.91
2019-02-19T19:06:18.343Z,56.63
2019-02-19T19:08:49.050Z,56.50
2019-02-19T19:11:19.619Z,56.99
2019-02-19T19:13:50.148Z,56.98
2019-02-19T19:16:21.070Z,57.54
2019-02-19T19:19:00.299Z,57.52
2019-02-19T19:24:41.248Z,57.02
2019-02-19T19:27:11.851Z,57.20
2019-02-19T19:29:47.569Z,56.26
2019-02-19T19:32:51.846Z,56.57
2019-02-19T19:35:22.619Z,56.04
2019-02-19T19:38:04.276Z,55.77
2019-02-19T19:40:25.017Z,55.98
2019-02-19T19:42:55.683Z,58.66
2019-02-19T19:45:26.866Z,56.00
2019-02-19T19:48:00.201Z,58.23
2019-02-19T19:50:43.599Z,56.92
2019-02-19T19:53:32.346Z,55.65
2019-02-19T19:56:06.346Z,57.24
2019-02-19T19:59:33.878Z,55.76
2019-02-19T20:02:14.277Z,56.30
2019-02-19T20:04:44.798Z,56.40
2019-02-19T20:07:34.297Z,56.18
2019-02-19T20:10:08.728Z,57.07
2019-02-19T20:12:40.085Z,56.06
2019-02-19T20:15:10.859Z,56.28
2019-02-19T20:17:41.501Z,57.72
2019-02-19T20:20:12.078Z,57.97
2019-02-19T20:22:42.726Z,58.62
2019-02-19T20:25:16.128Z,59.62
2019-02-19T20:28:03.324Z,61.26
2019-02-19T20:30:53.938Z,58.62
2019-02-19T20:33:33.131Z,58.46
2019-02-19T20:36:15.927Z,61.82
2019-02-19T20:39:56.937Z,63.43
2019-02-19T20:42:18.862Z,61.62
2019-02-19T20:45:30.356Z,60.38
2019-02-19T20:48:16.220Z,63.91
2019-02-19T20:54:17.078Z,66.52
2019-02-19T20:56:48.866Z,63.93
2019-02-19T20:59:19.434Z,63.60
2019-02-19T21:01:59.438Z,66.37
2019-02-19T21:04:31.177Z,66.61
2019-02-19T21:07:05.189Z,66.84
2019-02-19T21:09:43.461Z,65.42
2019-02-19T21:12:09.708Z,66.41
2019-02-19T21:14:40.619Z,68.36
2019-02-19T21:17:12.331Z,67.16
2019-02-19T21:19:43.018Z,68.01
2019-02-19T21:22:13.657Z,70.47
2019-02-19T21:24:52.572Z,71.09
2019-02-19T21:27:26.224Z,69.14
2019-02-19T21:33:07.896Z,71.21
2019-02-19T21:40:31.276Z,68.80
2019-02-19T21:42:49.915Z,70.85
2019-02-19T21:45:20.708Z,70.63
2019-02-19T21:47:51.260Z,70.21
2019-02-19T21:50:21.965Z,70.07
2019-02-19T21:52:52.608Z,72.32
2019-02-19T21:55:25.211Z,70.54
2019-02-19T21:57:56.887Z,72.05
2019-02-19T22:00:35.641Z,76.81
2019-02-19T22:03:06.157Z,71.54
2019-02-19T22:05:39.190Z,74.22
2019-02-19T22:08:09.669Z,73.25
2019-02-19T22:13:51.598Z,72.17
2019-02-19T22:16:22.177Z,74.75
2019-02-19T22:19:25.144Z,73.32
2019-02-19T22:23:29.231Z,73.62
2019-02-19T22:26:05.836Z,75.14
2019-02-19T22:28:36.721Z,73.60
2019-02-19T22:31:11.866Z,74.13
2019-02-19T22:33:41.098Z,73.77
2019-02-19T22:36:11.824Z,73.68
2019-02-19T22:39:18.448Z,73.77
2019-02-19T22:41:49.236Z,73.87
2019-02-19T22:44:28.577Z,75.12
2019-02-19T22:53:32.726Z,73.94
2019-02-19T22:56:12.738Z,74.60
2019-02-19T22:58:43.300Z,75.94
2019-02-19T23:01:31.258Z,74.21
2019-02-19T23:04:01.979Z,75.14
2019-02-19T23:10:43.258Z,74.87
2019-02-19T23:14:12.744Z,74.98
2019-02-19T23:17:23.156Z,75.50
2019-02-19T23:21:13.905Z,76.20
2019-02-19T23:27:17.307Z,78.84
2019-02-19T23:37:06.819Z,75.64
2019-02-19T23:39:43.690Z,75.34
2019-02-19T23:42:43.338Z,79.41
2019-02-19T23:45:22.443Z,77.36
2019-02-19T23:48:00.518Z,77.35
2019-02-19T23:50:35.403Z,76.68
2019-02-19T23:53:05.918Z,77.35
2019-02-19T23:55:39.387Z,78.84
2019-02-19T23:58:10.028Z,79.13
